createdAt,value
2022-12-16T00:01:08.960Z,57.80
2022-12-16T00:03:36.873Z,55.30
2022-12-16T00:06:04.931Z,52.27
2022-12-16T00:08:33.288Z,57.17
2022-12-16T00:11:01.583Z,55.83
2022-12-16T00:13:30.330Z,60.27
2022-12-16T00:15:58.043Z,57.37
2022-12-16T00:18:25.343Z,55.47
2022-12-16T00:20:54.839Z,54.33
2022-12-16T00:23:22.882Z,60.23
2022-12-16T00:25:50.754Z,53.03
2022-12-16T00:28:23.052Z,52.83
2022-12-16T00:30:51.402Z,55.87
2022-12-16T00:33:20.119Z,58.00
2022-12-16T00:35:47.433Z,53.60
2022-12-16T00:38:14.811Z,58.70
2022-12-16T00:40:42.031Z,51.60
2022-12-16T00:43:09.354Z,53.47
2022-12-16T00:45:36.546Z,52.73
2022-12-16T00:48:04.165Z,53.43
2022-12-16T00:50:32.155Z,57.03
2022-12-16T00:52:59.639Z,62.43
2022-12-16T00:55:27.236Z,61.87
2022-12-16T00:57:54.864Z,60.67
2022-12-16T01:00:22.539Z,57.50
2022-12-16T01:02:51.022Z,57.63
2022-12-16T01:05:20.836Z,54.50
2022-12-16T01:07:48.668Z,55.23
2022-12-16T01:10:16.095Z,58.50
2022-12-16T01:12:43.371Z,58.60
2022-12-16T01:15:12.552Z,59.37
2022-12-16T01:17:43.210Z,58.70
2022-12-16T01:20:10.888Z,55.93
2022-12-16T01:22:38.138Z,56.20
2022-12-16T01:25:05.529Z,60.27
2022-12-16T01:27:32.919Z,56.07
2022-12-16T01:30:00.212Z,55.10
2022-12-16T01:32:27.396Z,57.43
2022-12-16T01:34:55.816Z,55.30
2022-12-16T01:37:24.015Z,55.80
2022-12-16T01:39:52.286Z,55.23
2022-12-16T01:42:21.462Z,50.93
2022-12-16T01:44:49.862Z,60.33
2022-12-16T01:47:27.817Z,62.23
2022-12-16T01:50:00.224Z,55.97
2022-12-16T01:52:30.769Z,57.77
2022-12-16T01:55:09.372Z,53.67
2022-12-16T01:57:48.795Z,56.80
2022-12-16T02:00:16.531Z,58.70
2022-12-16T02:02:45.581Z,58.03
2022-12-16T02:05:20.658Z,57.47
2022-12-16T02:08:01.282Z,63.17
2022-12-16T02:10:34.006Z,57.90
2022-12-16T02:13:05.538Z,59.43
2022-12-16T02:15:42.238Z,55.90
2022-12-16T02:18:09.429Z,60.17
2022-12-16T02:20:55.675Z,55.60
2022-12-16T02:23:26.176Z,59.17
2022-12-16T02:25:59.831Z,53.73
2022-12-16T02:28:33.173Z,56.10
2022-12-16T02:31:15.681Z,54.93
2022-12-16T02:33:48.949Z,57.77
2022-12-16T02:36:25.296Z,56.13
2022-12-16T02:39:01.584Z,55.80
2022-12-16T02:41:28.828Z,57.20
2022-12-16T02:44:02.466Z,55.60
2022-12-16T02:46:31.877Z,54.40
2022-12-16T02:49:05.425Z,56.53
2022-12-16T02:51:34.294Z,54.40
2022-12-16T02:54:01.467Z,58.83
2022-12-16T02:56:37.948Z,55.83
2022-12-16T02:59:17.136Z,57.47
2022-12-16T03:01:53.625Z,54.27
2022-12-16T03:04:41.687Z,51.87
2022-12-16T03:07:11.793Z,52.93
2022-12-16T03:09:40.398Z,58.03
2022-12-16T03:12:10.404Z,53.43
2022-12-16T03:14:38.816Z,58.83
2022-12-16T03:17:07.023Z,54.30
2022-12-16T03:19:35.350Z,53.43
2022-12-16T03:22:08.818Z,56.20
2022-12-16T03:24:36.744Z,53.30
2022-12-16T03:27:03.848Z,51.07
2022-12-16T03:29:51.318Z,52.47
2022-12-16T03:32:23.540Z,51.60
2022-12-16T03:34:56.344Z,51.13
2022-12-16T03:37:25.159Z,51.37
2022-12-16T03:39:54.693Z,52.13
2022-12-16T03:42:21.987Z,49.03
2022-12-16T03:44:50.373Z,50.07
2022-12-16T03:47:23.386Z,50.43
2022-12-16T03:49:51.200Z,47.77
2022-12-16T03:52:18.361Z,48.80
2022-12-16T03:54:45.510Z,45.83
2022-12-16T03:57:15.263Z,49.97
2022-12-16T03:59:42.901Z,46.63
2022-12-16T04:02:10.282Z,48.03
2022-12-16T04:04:37.714Z,46.93
2022-12-16T04:07:20.217Z,45.60
2022-12-16T04:10:06.597Z,49.83
2022-12-16T04:12:52.659Z,46.93
2022-12-16T04:15:38.806Z,45.30
2022-12-16T04:18:25.223Z,43.20
2022-12-16T04:21:14.887Z,47.93
2022-12-16T04:24:06.755Z,42.47
2022-12-16T04:26:56.822Z,44.00
2022-12-16T04:29:24.491Z,44.00
2022-12-16T04:31:52.466Z,44.03
2022-12-16T04:34:27.268Z,40.23
2022-12-16T04:37:14.305Z,44.63
2022-12-16T04:40:00.192Z,41.17
2022-12-16T04:42:46.119Z,43.73
2022-12-16T04:45:32.258Z,43.97
2022-12-16T04:48:18.406Z,42.07
2022-12-16T04:51:05.111Z,42.67
2022-12-16T04:53:51.228Z,40.67
2022-12-16T04:56:37.224Z,43.20
2022-12-16T04:59:23.035Z,38.60
2022-12-16T05:02:09.063Z,40.00
2022-12-16T05:04:54.837Z,36.27
2022-12-16T05:07:40.910Z,42.80
2022-12-16T05:10:28.386Z,41.33
2022-12-16T05:13:14.668Z,39.13
2022-12-16T05:16:00.530Z,39.60
2022-12-16T05:18:46.526Z,38.70
2022-12-16T05:21:32.668Z,38.87
2022-12-16T05:24:18.615Z,38.13
2022-12-16T05:27:04.826Z,39.00
2022-12-16T05:29:50.759Z,42.67
2022-12-16T05:32:36.618Z,40.70
2022-12-16T05:35:22.446Z,43.87
2022-12-16T05:38:08.359Z,42.77
2022-12-16T05:40:54.535Z,69.13
2022-12-16T05:43:40.952Z,43.80
2022-12-16T05:46:27.058Z,36.50
2022-12-16T05:49:13.195Z,37.00
2022-12-16T05:51:58.910Z,40.33
2022-12-16T05:54:45.474Z,36.17
2022-12-16T05:57:31.246Z,37.70
2022-12-16T06:00:17.035Z,39.00
2022-12-16T06:03:03.052Z,38.27
2022-12-16T06:05:48.916Z,37.07
2022-12-16T06:08:34.987Z,38.10
2022-12-16T06:11:21.370Z,36.43
2022-12-16T06:14:07.412Z,32.77
2022-12-16T06:16:53.493Z,33.37
2022-12-16T06:19:39.826Z,37.77
2022-12-16T06:22:25.669Z,37.03
2022-12-16T06:25:11.466Z,35.63
2022-12-16T06:27:57.342Z,67.20
2022-12-16T06:30:43.549Z,90.77
2022-12-16T06:33:29.576Z,40.67
2022-12-16T06:36:15.929Z,35.13
2022-12-16T06:39:02.348Z,35.60
2022-12-16T06:41:48.731Z,36.83
2022-12-16T06:44:34.518Z,34.87
2022-12-16T06:47:20.417Z,34.20
2022-12-16T06:50:06.511Z,37.53
2022-12-16T06:52:52.698Z,37.83
2022-12-16T06:55:41.189Z,35.17
2022-12-16T06:58:27.325Z,37.07
2022-12-16T07:01:15.396Z,38.43
2022-12-16T07:04:01.758Z,39.43
2022-12-16T07:06:50.783Z,38.27
2022-12-16T07:09:36.815Z,41.23
2022-12-16T07:12:22.909Z,41.63
2022-12-16T07:15:09.138Z,37.93
2022-12-16T07:17:55.024Z,43.87
2022-12-16T07:20:41.085Z,45.43
2022-12-16T07:23:32.256Z,44.97
2022-12-16T07:26:18.435Z,43.53
2022-12-16T07:29:09.389Z,44.97
2022-12-16T07:31:56.218Z,44.17
2022-12-16T07:34:47.121Z,43.80
2022-12-16T07:37:36.313Z,40.33
2022-12-16T07:40:22.534Z,45.70
2022-12-16T07:43:08.578Z,41.93
2022-12-16T07:45:54.552Z,42.97
2022-12-16T07:48:41.194Z,43.23
2022-12-16T07:51:27.304Z,43.07
2022-12-16T07:54:13.542Z,40.90
2022-12-16T07:56:59.359Z,46.77
2022-12-16T07:59:45.533Z,47.83
2022-12-16T08:02:31.472Z,47.37
2022-12-16T08:05:17.938Z,43.93
2022-12-16T08:08:04.197Z,48.77
2022-12-16T08:10:50.314Z,53.33
2022-12-16T08:13:36.992Z,48.50
2022-12-16T08:16:23.300Z,51.93
2022-12-16T08:19:11.426Z,50.67
2022-12-16T08:21:57.716Z,53.07
2022-12-16T08:24:51.535Z,52.40
2022-12-16T08:27:39.334Z,56.77
2022-12-16T08:30:25.537Z,51.87
2022-12-16T08:33:18.828Z,57.00
2022-12-16T08:36:05.655Z,58.33
2022-12-16T08:38:52.206Z,58.53
2022-12-16T08:41:39.239Z,62.70
2022-12-16T08:44:25.363Z,63.37
2022-12-16T08:47:11.486Z,63.87
2022-12-16T08:49:59.917Z,62.07
2022-12-16T08:52:48.483Z,63.27
2022-12-16T08:55:34.492Z,62.97
2022-12-16T08:58:20.653Z,64.83
2022-12-16T09:01:07.685Z,64.87
2022-12-16T09:03:54.411Z,65.20
2022-12-16T09:06:41.312Z,61.80
2022-12-16T09:09:28.426Z,62.27
2022-12-16T09:12:14.177Z,64.80
2022-12-16T09:15:00.372Z,66.07
2022-12-16T09:17:46.285Z,68.70
2022-12-16T09:20:32.222Z,67.93
2022-12-16T09:23:23.861Z,62.67
2022-12-16T09:26:09.993Z,69.83
2022-12-16T09:28:55.760Z,60.73
2022-12-16T09:31:41.907Z,64.37
2022-12-16T09:34:28.119Z,65.77
2022-12-16T09:40:18.201Z,63.17
2022-12-16T09:43:08.751Z,62.57
2022-12-16T09:46:14.118Z,60.53
2022-12-16T09:49:00.140Z,57.77
2022-12-16T09:51:46.917Z,48.53
2022-12-16T09:54:35.079Z,51.10
2022-12-16T09:57:22.303Z,48.87
2022-12-16T10:00:13.761Z,51.70
2022-12-16T10:03:06.568Z,53.50
2022-12-16T10:05:58.610Z,49.73
2022-12-16T10:08:49.927Z,50.23
2022-12-16T10:11:43.593Z,50.20
2022-12-16T10:14:34.067Z,44.60
2022-12-16T10:17:40.026Z,48.23
2022-12-16T10:20:31.525Z,46.40
2022-12-16T10:23:22.480Z,45.37
2022-12-16T10:26:10.730Z,49.43
2022-12-16T10:29:06.518Z,46.90
2022-12-16T10:31:53.114Z,46.03
2022-12-16T10:34:40.868Z,46.30
2022-12-16T10:37:32.045Z,50.90
2022-12-16T10:40:19.036Z,47.60
2022-12-16T10:43:10.190Z,50.67
2022-12-16T10:45:59.768Z,47.57
2022-12-16T10:48:55.062Z,48.63
2022-12-16T10:51:49.393Z,47.87
2022-12-16T10:54:44.415Z,49.63
2022-12-16T10:57:38.343Z,48.60
2022-12-16T11:00:28.657Z,47.33
2022-12-16T11:03:14.711Z,48.37
2022-12-16T11:06:00.907Z,50.97
2022-12-16T11:08:48.379Z,50.77
2022-12-16T11:11:45.456Z,53.20
2022-12-16T11:15:05.621Z,51.30
2022-12-16T11:17:48.696Z,48.03
2022-12-16T11:20:39.318Z,50.33
2022-12-16T11:23:34.322Z,51.50
2022-12-16T11:26:24.653Z,53.83
2022-12-16T11:29:21.941Z,49.07
2022-12-16T11:32:13.980Z,50.60
2022-12-16T11:35:01.042Z,47.53
2022-12-16T11:37:49.393Z,51.07
2022-12-16T11:40:37.058Z,52.53
2022-12-16T11:43:24.345Z,51.37
2022-12-16T11:46:11.700Z,56.17
2022-12-16T11:49:02.055Z,56.27
2022-12-16T11:51:49.963Z,54.07
2022-12-16T11:54:40.825Z,51.50
2022-12-16T11:57:35.207Z,48.77
2022-12-16T12:00:21.911Z,50.23
2022-12-16T12:03:21.345Z,53.27
2022-12-16T12:06:10.162Z,48.67
2022-12-16T12:09:07.675Z,54.60
2022-12-16T12:12:15.976Z,52.40
2022-12-16T12:15:24.392Z,50.63
2022-12-16T12:18:22.092Z,50.07
2022-12-16T12:21:26.631Z,52.00
2022-12-16T12:24:28.741Z,52.60
2022-12-16T12:27:22.295Z,52.30
2022-12-16T12:30:18.585Z,56.27
2022-12-16T12:33:07.546Z,51.07
2022-12-16T12:35:59.213Z,51.80
2022-12-16T12:38:55.092Z,53.20
2022-12-16T12:41:46.518Z,52.87
2022-12-16T12:44:48.261Z,55.27
2022-12-16T12:47:36.030Z,51.90
2022-12-16T12:50:31.233Z,53.20
2022-12-16T12:53:27.597Z,54.57
2022-12-16T12:56:19.456Z,54.23
2022-12-16T12:59:06.911Z,52.97
2022-12-16T13:01:54.725Z,54.07
2022-12-16T13:04:42.671Z,53.27
2022-12-16T13:07:28.675Z,51.40
2022-12-16T13:10:37.169Z,53.80
2022-12-16T13:13:43.084Z,55.00
2022-12-16T13:16:30.766Z,56.87
2022-12-16T13:19:35.425Z,56.00
2022-12-16T13:22:21.991Z,54.03
2022-12-16T13:25:09.789Z,54.13
2022-12-16T13:28:07.923Z,56.27
2022-12-16T13:30:54.407Z,55.63
2022-12-16T13:33:44.651Z,54.80
2022-12-16T13:36:31.680Z,53.87
2022-12-16T13:39:20.089Z,55.53
2022-12-16T13:42:10.136Z,57.73
2022-12-16T13:45:02.327Z,53.33
2022-12-16T13:48:14.645Z,55.37
2022-12-16T13:51:02.039Z,56.93
2022-12-16T13:53:50.349Z,58.13
2022-12-16T13:56:39.929Z,55.07
2022-12-16T13:59:39.055Z,59.90
2022-12-16T14:02:46.369Z,56.40
2022-12-16T14:05:41.779Z,55.90
2022-12-16T14:08:33.605Z,58.30
2022-12-16T14:11:21.890Z,59.67
2022-12-16T14:14:23.402Z,62.30
2022-12-16T14:17:09.235Z,61.37
2022-12-16T14:20:06.145Z,59.13
2022-12-16T14:23:32.408Z,56.80
2022-12-16T14:26:19.570Z,60.63
2022-12-16T14:29:07.154Z,58.20
2022-12-16T14:31:57.605Z,62.40
2022-12-16T14:34:50.989Z,60.57
2022-12-16T14:37:36.675Z,59.80
2022-12-16T14:40:23.984Z,62.90
2022-12-16T14:43:13.166Z,55.90
2022-12-16T14:46:07.393Z,62.87
2022-12-16T14:48:54.456Z,56.93
2022-12-16T14:51:51.408Z,62.17
2022-12-16T14:54:45.297Z,57.40
2022-12-16T14:57:38.220Z,57.47
2022-12-16T15:00:27.222Z,63.87
2022-12-16T15:03:22.635Z,62.47
2022-12-16T15:06:30.590Z,60.00
2022-12-16T15:09:19.632Z,59.33
2022-12-16T15:12:06.357Z,61.13
2022-12-16T15:14:54.734Z,64.23
2022-12-16T15:17:42.153Z,60.77
2022-12-16T15:20:54.063Z,59.23
2022-12-16T15:23:42.042Z,57.33
2022-12-16T15:26:29.058Z,62.23
2022-12-16T15:29:15.001Z,62.20
2022-12-16T15:32:03.556Z,67.50
2022-12-16T15:34:50.151Z,60.07
2022-12-16T15:37:40.904Z,63.13
2022-12-16T15:40:39.153Z,63.77
2022-12-16T15:43:25.653Z,62.43
2022-12-16T15:46:11.733Z,61.33
2022-12-16T15:48:57.829Z,59.80
2022-12-16T15:52:08.106Z,58.57
2022-12-16T15:55:07.873Z,60.80
2022-12-16T15:57:54.456Z,64.17
2022-12-16T16:00:48.254Z,62.37
2022-12-16T16:03:37.876Z,58.43
2022-12-16T16:06:24.388Z,58.37
2022-12-16T16:09:11.014Z,62.93
2022-12-16T16:11:56.931Z,61.53
2022-12-16T16:14:43.044Z,64.30
2022-12-16T16:17:38.987Z,61.77
2022-12-16T16:20:25.784Z,60.97
2022-12-16T16:23:11.673Z,61.43
2022-12-16T16:26:03.501Z,65.40
2022-12-16T16:28:49.753Z,63.30
2022-12-16T16:31:35.568Z,59.07
2022-12-16T16:34:21.615Z,61.90
2022-12-16T16:37:27.028Z,62.77
2022-12-16T16:40:13.276Z,61.73
2022-12-16T16:42:59.219Z,62.33
2022-12-16T16:45:45.356Z,73.37
2022-12-16T16:48:32.820Z,67.67
2022-12-16T16:51:19.148Z,63.27
2022-12-16T16:54:04.857Z,64.23
2022-12-16T16:56:52.938Z,61.43
2022-12-16T16:59:40.995Z,68.37
2022-12-16T17:02:45.117Z,63.27
2022-12-16T17:05:31.690Z,61.90
2022-12-16T17:08:17.794Z,58.13
2022-12-16T17:11:03.561Z,62.17
2022-12-16T17:13:49.485Z,61.50
2022-12-16T17:16:35.508Z,60.10
2022-12-16T17:19:21.585Z,60.80
2022-12-16T17:22:07.752Z,62.37
2022-12-16T17:24:54.483Z,60.57
2022-12-16T17:27:45.133Z,63.27
2022-12-16T17:30:44.919Z,61.60
2022-12-16T17:33:33.320Z,61.73
2022-12-16T17:36:19.505Z,59.13
2022-12-16T17:39:05.726Z,58.53
2022-12-16T17:41:52.693Z,60.93
2022-12-16T17:44:38.603Z,62.50
2022-12-16T17:47:24.773Z,65.87
2022-12-16T17:50:10.700Z,64.10
2022-12-16T17:52:56.933Z,59.57
2022-12-16T17:55:43.160Z,64.03
2022-12-16T17:58:30.957Z,64.30
2022-12-16T18:01:21.122Z,58.80
2022-12-16T18:04:07.527Z,58.27
2022-12-16T18:06:53.407Z,60.67
2022-12-16T18:09:39.576Z,71.33
2022-12-16T18:12:27.585Z,62.03
2022-12-16T18:15:13.484Z,63.33
2022-12-16T18:17:59.621Z,58.23
2022-12-16T18:20:45.744Z,57.10
2022-12-16T18:23:31.829Z,58.70
2022-12-16T18:26:19.422Z,58.93
2022-12-16T18:29:05.612Z,64.30
2022-12-16T18:31:51.573Z,64.03
2022-12-16T18:34:37.497Z,59.43
2022-12-16T18:37:23.613Z,58.17
2022-12-16T18:40:10.801Z,60.23
2022-12-16T18:42:56.840Z,60.80
2022-12-16T18:45:43.696Z,60.87
2022-12-16T18:48:36.151Z,60.63
2022-12-16T18:51:24.731Z,59.07
2022-12-16T18:54:10.541Z,58.97
2022-12-16T18:56:56.564Z,59.27
2022-12-16T18:59:42.489Z,62.27
2022-12-16T19:02:28.588Z,63.70
2022-12-16T19:05:14.811Z,64.93
2022-12-16T19:08:00.923Z,57.47
2022-12-16T19:10:50.320Z,59.73
2022-12-16T19:13:36.355Z,63.13
2022-12-16T19:16:22.677Z,60.50
2022-12-16T19:19:14.985Z,62.70
2022-12-16T19:22:04.020Z,64.43
2022-12-16T19:24:50.180Z,61.70
2022-12-16T19:30:40.145Z,59.30
2022-12-16T19:33:25.971Z,58.47
2022-12-16T19:36:14.663Z,62.63
2022-12-16T19:39:00.886Z,62.53
2022-12-16T19:41:46.753Z,60.20
2022-12-16T19:44:32.650Z,62.10
2022-12-16T19:47:18.555Z,61.73
2022-12-16T19:50:04.618Z,59.70
2022-12-16T19:52:50.360Z,61.23
2022-12-16T19:55:37.934Z,59.20
2022-12-16T19:58:23.705Z,57.50
2022-12-16T20:01:09.543Z,61.90
2022-12-16T20:03:56.761Z,59.07
2022-12-16T20:06:42.949Z,54.97
2022-12-16T20:09:28.741Z,58.97
2022-12-16T20:12:14.515Z,59.67
2022-12-16T20:15:00.379Z,60.13
2022-12-16T20:17:46.495Z,59.93
2022-12-16T20:20:32.623Z,59.83
2022-12-16T20:23:20.151Z,61.33
2022-12-16T20:26:20.567Z,58.90
2022-12-16T20:29:06.816Z,59.80
2022-12-16T20:31:55.741Z,59.53
2022-12-16T20:34:41.902Z,59.07
2022-12-16T20:37:28.032Z,61.80
2022-12-16T20:40:13.989Z,60.63
2022-12-16T20:43:00.206Z,60.20
2022-12-16T20:45:46.136Z,60.53
2022-12-16T20:48:52.345Z,61.03
2022-12-16T20:51:42.725Z,59.47
2022-12-16T20:54:31.350Z,59.17
2022-12-16T20:57:16.923Z,56.80
2022-12-16T21:00:02.835Z,65.43
2022-12-16T21:02:48.789Z,56.03
2022-12-16T21:05:34.733Z,59.57
2022-12-16T21:08:20.606Z,65.30
2022-12-16T21:11:06.608Z,55.03
2022-12-16T21:13:52.399Z,61.37
2022-12-16T21:16:42.324Z,60.50
2022-12-16T21:19:33.277Z,58.70
2022-12-16T21:22:19.918Z,59.97
2022-12-16T21:25:06.009Z,59.83
2022-12-16T21:27:51.934Z,60.23
2022-12-16T21:30:38.630Z,59.57
2022-12-16T21:33:24.583Z,63.07
2022-12-16T21:36:13.545Z,57.97
2022-12-16T21:38:59.698Z,72.07
2022-12-16T21:41:45.755Z,69.73
2022-12-16T21:44:31.719Z,58.13
2022-12-16T21:47:17.776Z,59.60
2022-12-16T21:50:04.108Z,51.97
2022-12-16T21:52:49.948Z,57.43
2022-12-16T21:55:54.751Z,56.43
2022-12-16T21:58:42.885Z,57.80
2022-12-16T22:01:28.750Z,55.27
2022-12-16T22:04:14.666Z,59.37
2022-12-16T22:07:00.654Z,56.97
2022-12-16T22:09:46.376Z,59.93
2022-12-16T22:12:32.152Z,60.90
2022-12-16T22:15:18.301Z,59.50
2022-12-16T22:18:04.174Z,56.33
2022-12-16T22:20:50.308Z,56.87
2022-12-16T22:23:36.471Z,54.87
2022-12-16T22:26:25.380Z,55.43
2022-12-16T22:29:11.818Z,57.83
2022-12-16T22:31:57.857Z,58.07
2022-12-16T22:34:43.691Z,51.30
2022-12-16T22:37:29.682Z,53.67
2022-12-16T22:40:15.596Z,54.27
2022-12-16T22:43:01.658Z,51.90
2022-12-16T22:45:47.793Z,54.33
2022-12-16T22:48:33.792Z,56.63
2022-12-16T22:51:19.950Z,54.87
2022-12-16T22:54:08.061Z,51.43
2022-12-16T22:59:59.874Z,51.47
2022-12-16T23:02:45.991Z,51.70
2022-12-16T23:05:32.321Z,52.87
2022-12-16T23:08:18.309Z,54.07
2022-12-16T23:11:04.400Z,48.33
2022-12-16T23:13:50.062Z,50.67
2022-12-16T23:16:36.055Z,54.67
2022-12-16T23:19:21.962Z,53.30
2022-12-16T23:22:07.996Z,49.37
2022-12-16T23:24:54.245Z,51.87
2022-12-16T23:27:42.381Z,49.77
2022-12-16T23:30:28.834Z,52.03
2022-12-16T23:32:31.186Z,56.07
2022-12-16T23:33:18.593Z,51.67
2022-12-16T23:36:04.701Z,55.13
2022-12-16T23:38:50.356Z,48.73
2022-12-16T23:41:36.287Z,52.80
2022-12-16T23:44:22.317Z,50.53
2022-12-16T23:47:08.202Z,50.27
2022-12-16T23:49:53.987Z,52.20
2022-12-16T23:52:42.962Z,53.10
2022-12-16T23:55:29.390Z,51.27
2022-12-16T23:58:18.973Z,52.17
